sensor_id;sensor_type;location;lat;lon;timestamp;pressure;altitude;pressure_sealevel;temperature;humidity
74615;BME280;63121;51.458;-0.110;2023-08-31T00:00:29;100852.13;;;19.13;52.92
74615;BME280;63121;51.458;-0.110;2023-08-31T00:02:55;100855.53;;;19.15;53.29
74615;BME280;63121;51.458;-0.110;2023-08-31T00:05:20;100864.38;;;19.13;53.16
74615;BME280;63121;51.458;-0.110;2023-08-31T00:07:45;100866.84;;;19.16;53.03
74615;BME280;63121;51.458;-0.110;2023-08-31T00:10:11;100862.66;;;19.12;52.81
74615;BME280;63121;51.458;-0.110;2023-08-31T00:12:37;100866.22;;;19.11;52.85
74615;BME280;63121;51.458;-0.110;2023-08-31T00:15:03;100856.00;;;19.04;52.79
74615;BME280;63121;51.458;-0.110;2023-08-31T00:17:30;100861.03;;;19.09;52.96
74615;BME280;63121;51.458;-0.110;2023-08-31T00:19:55;100854.66;;;18.96;53.38
74615;BME280;63121;51.458;-0.110;2023-08-31T00:22:21;100859.38;;;18.87;53.49
74615;BME280;63121;51.458;-0.110;2023-08-31T00:24:46;100858.44;;;18.88;53.32
74615;BME280;63121;51.458;-0.110;2023-08-31T00:27:11;100847.34;;;18.61;54.36
74615;BME280;63121;51.458;-0.110;2023-08-31T00:29:39;100848.66;;;18.72;54.15
74615;BME280;63121;51.458;-0.110;2023-08-31T00:32:05;100843.38;;;18.73;53.95
74615;BME280;63121;51.458;-0.110;2023-08-31T00:34:31;100835.78;;;18.67;54.08
74615;BME280;63121;51.458;-0.110;2023-08-31T00:36:57;100842.59;;;18.71;54.13
74615;BME280;63121;51.458;-0.110;2023-08-31T00:39:22;100839.34;;;18.66;54.41
74615;BME280;63121;51.458;-0.110;2023-08-31T00:41:48;100832.72;;;18.57;54.54
74615;BME280;63121;51.458;-0.110;2023-08-31T00:44:13;100840.44;;;18.60;54.36
74615;BME280;63121;51.458;-0.110;2023-08-31T00:46:40;100835.22;;;18.60;54.31
74615;BME280;63121;51.458;-0.110;2023-08-31T00:49:06;100828.16;;;18.62;54.85
74615;BME280;63121;51.458;-0.110;2023-08-31T00:51:32;100828.47;;;18.55;54.75
74615;BME280;63121;51.458;-0.110;2023-08-31T00:53:58;100834.88;;;18.47;54.90
74615;BME280;63121;51.458;-0.110;2023-08-31T00:56:24;100840.03;;;18.28;55.67
74615;BME280;63121;51.458;-0.110;2023-08-31T00:58:50;100840.47;;;18.38;55.04
74615;BME280;63121;51.458;-0.110;2023-08-31T01:03:59;100830.03;;;18.38;55.53
74615;BME280;63121;51.458;-0.110;2023-08-31T01:09:34;100833.03;;;18.29;55.92
74615;BME280;63121;51.458;-0.110;2023-08-31T01:12:06;100824.69;;;18.41;55.53
74615;BME280;63121;51.458;-0.110;2023-08-31T01:14:40;100832.63;;;18.38;55.40
74615;BME280;63121;51.458;-0.110;2023-08-31T01:17:07;100834.34;;;18.39;55.03
74615;BME280;63121;51.458;-0.110;2023-08-31T01:22:16;100828.69;;;18.50;54.81
74615;BME280;63121;51.458;-0.110;2023-08-31T01:24:44;100829.72;;;18.46;55.23
74615;BME280;63121;51.458;-0.110;2023-08-31T01:27:10;100824.94;;;18.35;55.28
74615;BME280;63121;51.458;-0.110;2023-08-31T01:29:35;100835.13;;;18.41;54.96
74615;BME280;63121;51.458;-0.110;2023-08-31T01:32:05;100833.72;;;18.34;55.09
74615;BME280;63121;51.458;-0.110;2023-08-31T01:34:30;100828.81;;;18.04;55.94
74615;BME280;63121;51.458;-0.110;2023-08-31T01:36:58;100821.41;;;18.16;55.43
74615;BME280;63121;51.458;-0.110;2023-08-31T01:42:00;100833.44;;;17.98;55.77
74615;BME280;63121;51.458;-0.110;2023-08-31T01:44:30;100833.66;;;17.92;56.06
74615;BME280;63121;51.458;-0.110;2023-08-31T01:47:03;100836.47;;;18.09;55.57
74615;BME280;63121;51.458;-0.110;2023-08-31T01:49:36;100835.00;;;18.02;56.18
74615;BME280;63121;51.458;-0.110;2023-08-31T01:52:01;100830.91;;;17.96;55.92
74615;BME280;63121;51.458;-0.110;2023-08-31T01:54:27;100833.13;;;18.05;56.23
74615;BME280;63121;51.458;-0.110;2023-08-31T01:56:52;100831.41;;;18.04;55.85
74615;BME280;63121;51.458;-0.110;2023-08-31T01:59:17;100831.41;;;18.04;55.98
74615;BME280;63121;51.458;-0.110;2023-08-31T02:01:43;100823.53;;;18.06;56.01
74615;BME280;63121;51.458;-0.110;2023-08-31T02:04:08;100832.16;;;18.08;56.00
74615;BME280;63121;51.458;-0.110;2023-08-31T02:06:33;100832.38;;;17.80;57.04
74615;BME280;63121;51.458;-0.110;2023-08-31T02:08:58;100833.63;;;17.93;56.43
74615;BME280;63121;51.458;-0.110;2023-08-31T02:11:24;100829.91;;;17.99;56.56
74615;BME280;63121;51.458;-0.110;2023-08-31T02:13:49;100832.09;;;17.87;56.50
74615;BME280;63121;51.458;-0.110;2023-08-31T02:16:14;100838.34;;;17.83;57.03
74615;BME280;63121;51.458;-0.110;2023-08-31T02:18:40;100826.72;;;17.92;56.54
74615;BME280;63121;51.458;-0.110;2023-08-31T02:21:05;100835.84;;;18.02;56.65
74615;BME280;63121;51.458;-0.110;2023-08-31T02:23:32;100826.66;;;17.70;56.92
74615;BME280;63121;51.458;-0.110;2023-08-31T02:25:57;100837.69;;;17.77;56.94
74615;BME280;63121;51.458;-0.110;2023-08-31T02:28:23;100837.25;;;17.89;56.80
74615;BME280;63121;51.458;-0.110;2023-08-31T02:30:57;100837.03;;;17.95;56.57
74615;BME280;63121;51.458;-0.110;2023-08-31T02:33:23;100835.34;;;17.94;56.92
74615;BME280;63121;51.458;-0.110;2023-08-31T02:35:48;100826.09;;;18.07;56.29
74615;BME280;63121;51.458;-0.110;2023-08-31T02:38:13;100818.44;;;18.03;56.58
74615;BME280;63121;51.458;-0.110;2023-08-31T02:40:39;100826.28;;;18.03;56.20
74615;BME280;63121;51.458;-0.110;2023-08-31T02:43:04;100825.22;;;17.85;56.38
74615;BME280;63121;51.458;-0.110;2023-08-31T02:45:29;100824.19;;;17.89;56.84
74615;BME280;63121;51.458;-0.110;2023-08-31T02:47:55;100824.75;;;17.97;56.37
74615;BME280;63121;51.458;-0.110;2023-08-31T02:50:21;100825.22;;;17.85;56.76
74615;BME280;63121;51.458;-0.110;2023-08-31T02:52:46;100822.00;;;18.00;56.54
74615;BME280;63121;51.458;-0.110;2023-08-31T02:55:12;100819.16;;;17.84;56.65
74615;BME280;63121;51.458;-0.110;2023-08-31T02:57:37;100824.56;;;18.02;56.69
74615;BME280;63121;51.458;-0.110;2023-08-31T03:00:03;100820.72;;;18.11;56.40
74615;BME280;63121;51.458;-0.110;2023-08-31T03:02:28;100816.41;;;18.10;56.42
74615;BME280;63121;51.458;-0.110;2023-08-31T03:04:55;100822.69;;;18.05;56.50
74615;BME280;63121;51.458;-0.110;2023-08-31T03:07:20;100813.66;;;18.13;55.95
74615;BME280;63121;51.458;-0.110;2023-08-31T03:09:48;100825.41;;;18.02;56.49
74615;BME280;63121;51.458;-0.110;2023-08-31T03:12:14;100831.25;;;17.87;56.65
74615;BME280;63121;51.458;-0.110;2023-08-31T03:14:40;100830.72;;;18.01;56.13
74615;BME280;63121;51.458;-0.110;2023-08-31T03:17:05;100830.91;;;17.96;56.42
74615;BME280;63121;51.458;-0.110;2023-08-31T03:19:31;100825.13;;;17.88;57.02
74615;BME280;63121;51.458;-0.110;2023-08-31T03:21:56;100830.22;;;17.91;56.57
74615;BME280;63121;51.458;-0.110;2023-08-31T03:24:22;100826.03;;;17.87;56.67
74615;BME280;63121;51.458;-0.110;2023-08-31T03:26:48;100825.72;;;17.95;56.28
74615;BME280;63121;51.458;-0.110;2023-08-31T03:29:13;100818.97;;;17.89;56.78
74615;BME280;63121;51.458;-0.110;2023-08-31T03:31:39;100822.53;;;17.88;56.99
74615;BME280;63121;51.458;-0.110;2023-08-31T03:34:04;100812.78;;;17.92;56.68
74615;BME280;63121;51.458;-0.110;2023-08-31T03:36:29;100815.72;;;17.84;56.84
74615;BME280;63121;51.458;-0.110;2023-08-31T03:38:55;100827.25;;;17.77;57.19
74615;BME280;63121;51.458;-0.110;2023-08-31T03:41:20;100823.06;;;17.73;57.28
74615;BME280;63121;51.458;-0.110;2023-08-31T03:43:45;100821.06;;;17.57;57.29
74615;BME280;63121;51.458;-0.110;2023-08-31T03:46:11;100815.13;;;17.76;57.29
74615;BME280;63121;51.458;-0.110;2023-08-31T03:48:36;100814.00;;;17.83;56.84
74615;BME280;63121;51.458;-0.110;2023-08-31T03:51:02;100812.34;;;17.80;57.00
74615;BME280;63121;51.458;-0.110;2023-08-31T03:53:28;100821.09;;;17.79;57.05
74615;BME280;63121;51.458;-0.110;2023-08-31T03:55:53;100820.13;;;17.82;56.93
74615;BME280;63121;51.458;-0.110;2023-08-31T03:58:19;100823.84;;;17.75;57.08
74615;BME280;63121;51.458;-0.110;2023-08-31T04:00:44;100823.19;;;17.70;57.53
74615;BME280;63121;51.458;-0.110;2023-08-31T04:03:11;100834.97;;;17.58;57.60
74615;BME280;63121;51.458;-0.110;2023-08-31T04:05:36;100833.13;;;17.60;57.49
74615;BME280;63121;51.458;-0.110;2023-08-31T04:08:02;100828.25;;;17.74;57.21
74615;BME280;63121;51.458;-0.110;2023-08-31T04:10:28;100830.81;;;17.76;57.56
74615;BME280;63121;51.458;-0.110;2023-08-31T04:12:55;100826.72;;;17.68;57.50
74615;BME280;63121;51.458;-0.110;2023-08-31T04:15:20;100829.44;;;17.65;57.58
74615;BME280;63121;51.458;-0.110;2023-08-31T04:17:46;100814.63;;;17.44;57.91
74615;BME280;63121;51.458;-0.110;2023-08-31T04:20:11;100817.78;;;17.52;57.63
74615;BME280;63121;51.458;-0.110;2023-08-31T04:22:37;100813.41;;;17.53;57.55
74615;BME280;63121;51.458;-0.110;2023-08-31T04:25:03;100814.16;;;17.56;57.62
74615;BME280;63121;51.458;-0.110;2023-08-31T04:27:29;100813.13;;;17.60;57.91
74615;BME280;63121;51.458;-0.110;2023-08-31T04:29:58;100814.94;;;17.58;57.58
74615;BME280;63121;51.458;-0.110;2023-08-31T04:32:23;100831.94;;;17.68;57.09
74615;BME280;63121;51.458;-0.110;2023-08-31T04:34:50;100839.69;;;17.48;58.19
74615;BME280;63121;51.458;-0.110;2023-08-31T04:37:16;100831.31;;;17.62;57.86
74615;BME280;63121;51.458;-0.110;2023-08-31T04:39:41;100834.84;;;17.61;57.56
74615;BME280;63121;51.458;-0.110;2023-08-31T04:42:07;100829.03;;;17.54;57.58
74615;BME280;63121;51.458;-0.110;2023-08-31T04:44:32;100836.28;;;17.46;58.19
74615;BME280;63121;51.458;-0.110;2023-08-31T04:46:58;100830.75;;;17.54;57.97
74615;BME280;63121;51.458;-0.110;2023-08-31T04:49:23;100836.91;;;17.53;57.51
74615;BME280;63121;51.458;-0.110;2023-08-31T04:51:48;100836.63;;;17.60;57.46
74615;BME280;63121;51.458;-0.110;2023-08-31T04:54:14;100833.84;;;17.65;57.39
74615;BME280;63121;51.458;-0.110;2023-08-31T04:56:40;100833.84;;;17.65;57.23
74615;BME280;63121;51.458;-0.110;2023-08-31T04:59:05;100835.31;;;17.48;58.11
74615;BME280;63121;51.458;-0.110;2023-08-31T05:01:31;100839.91;;;17.65;57.29
74615;BME280;63121;51.458;-0.110;2023-08-31T05:03:56;100844.28;;;17.65;57.69
74615;BME280;63121;51.458;-0.110;2023-08-31T05:06:22;100852.94;;;17.65;57.42
74615;BME280;63121;51.458;-0.110;2023-08-31T05:08:48;100852.81;;;17.68;57.30
74615;BME280;63121;51.458;-0.110;2023-08-31T05:11:13;100853.28;;;17.80;57.08
74615;BME280;63121;51.458;-0.110;2023-08-31T05:13:39;100851.88;;;17.71;57.13
74615;BME280;63121;51.458;-0.110;2023-08-31T05:16:07;100847.53;;;17.70;57.16
74615;BME280;63121;51.458;-0.110;2023-08-31T05:18:33;100847.59;;;17.68;57.01
74615;BME280;63121;51.458;-0.110;2023-08-31T05:20:58;100852.94;;;17.65;57.58
74615;BME280;63121;51.458;-0.110;2023-08-31T05:23:24;100849.13;;;17.74;57.29
74615;BME280;63121;51.458;-0.110;2023-08-31T05:25:49;100854.06;;;17.82;57.09
74615;BME280;63121;51.458;-0.110;2023-08-31T05:28:14;100854.63;;;17.66;57.00
74615;BME280;63121;51.458;-0.110;2023-08-31T05:30:53;100851.13;;;17.67;57.08
74615;BME280;63121;51.458;-0.110;2023-08-31T05:33:19;100852.09;;;17.65;57.19
74615;BME280;63121;51.458;-0.110;2023-08-31T05:35:45;100854.63;;;17.66;57.16
74615;BME280;63121;51.458;-0.110;2023-08-31T05:38:10;100847.19;;;17.79;56.97
74615;BME280;63121;51.458;-0.110;2023-08-31T05:40:36;100843.41;;;17.88;56.91
74615;BME280;63121;51.458;-0.110;2023-08-31T05:43:02;100850.09;;;17.72;57.04
74615;BME280;63121;51.458;-0.110;2023-08-31T05:45:31;100850.22;;;17.92;56.79
74615;BME280;63121;51.458;-0.110;2023-08-31T05:47:57;100858.75;;;17.96;56.61
74615;BME280;63121;51.458;-0.110;2023-08-31T05:50:22;100859.34;;;18.02;56.75
74615;BME280;63121;51.458;-0.110;2023-08-31T05:52:48;100856.34;;;18.13;55.91
74615;BME280;63121;51.458;-0.110;2023-08-31T05:55:13;100856.06;;;18.19;55.62
74615;BME280;63121;51.458;-0.110;2023-08-31T05:57:38;100853.22;;;18.25;55.49
74615;BME280;63121;51.458;-0.110;2023-08-31T06:00:05;100863.84;;;18.43;55.33
74615;BME280;63121;51.458;-0.110;2023-08-31T06:02:32;100859.31;;;18.46;54.83
74615;BME280;63121;51.458;-0.110;2023-08-31T06:04:58;100862.00;;;18.45;55.31
74615;BME280;63121;51.458;-0.110;2023-08-31T06:07:23;100856.00;;;18.43;55.18
74615;BME280;63121;51.458;-0.110;2023-08-31T06:09:49;100852.50;;;18.42;55.22
74615;BME280;63121;51.458;-0.110;2023-08-31T06:12:14;100850.06;;;18.60;55.08
74615;BME280;63121;51.458;-0.110;2023-08-31T06:14:39;100856.97;;;18.61;54.61
74615;BME280;63121;51.458;-0.110;2023-08-31T06:17:05;100856.72;;;18.67;54.54
74615;BME280;63121;51.458;-0.110;2023-08-31T06:19:30;100858.16;;;18.54;54.83
74615;BME280;63121;51.458;-0.110;2023-08-31T06:21:55;100862.94;;;18.64;54.49
74615;BME280;63121;51.458;-0.110;2023-08-31T06:24:21;100861.69;;;18.73;54.61
74615;BME280;63121;51.458;-0.110;2023-08-31T06:26:46;100869.94;;;18.84;54.10
74615;BME280;63121;51.458;-0.110;2023-08-31T06:29:11;100864.53;;;18.89;53.89
74615;BME280;63121;51.458;-0.110;2023-08-31T06:31:37;100879.66;;;19.01;53.87
74615;BME280;63121;51.458;-0.110;2023-08-31T06:34:02;100875.94;;;19.07;53.36
74615;BME280;63121;51.458;-0.110;2023-08-31T06:36:29;100869.88;;;19.06;53.66
74615;BME280;63121;51.458;-0.110;2023-08-31T06:38:55;100873.63;;;19.20;53.55
74615;BME280;63121;51.458;-0.110;2023-08-31T06:41:20;100870.69;;;19.27;53.26
74615;BME280;63121;51.458;-0.110;2023-08-31T06:43:45;100869.69;;;19.30;52.87
74615;BME280;63121;51.458;-0.110;2023-08-31T06:46:11;100877.19;;;19.19;52.82
74615;BME280;63121;51.458;-0.110;2023-08-31T06:48:36;100879.03;;;19.36;52.65
74615;BME280;63121;51.458;-0.110;2023-08-31T06:51:02;100881.28;;;19.43;52.67
74615;BME280;63121;51.458;-0.110;2023-08-31T06:53:29;100879.84;;;19.38;52.43
74615;BME280;63121;51.458;-0.110;2023-08-31T06:55:54;100880.00;;;19.33;52.16
74615;BME280;63121;51.458;-0.110;2023-08-31T06:58:23;100884.06;;;19.40;52.52
74615;BME280;63121;51.458;-0.110;2023-08-31T07:00:48;100881.00;;;19.30;52.28
74615;BME280;63121;51.458;-0.110;2023-08-31T07:03:17;100881.66;;;19.36;52.49
74615;BME280;63121;51.458;-0.110;2023-08-31T07:05:43;100890.31;;;19.38;52.04
74615;BME280;63121;51.458;-0.110;2023-08-31T07:08:10;100883.41;;;19.35;52.14
74615;BME280;63121;51.458;-0.110;2023-08-31T07:10:36;100888.09;;;19.47;52.07
74615;BME280;63121;51.458;-0.110;2023-08-31T07:13:03;100892.16;;;19.55;51.96
74615;BME280;63121;51.458;-0.110;2023-08-31T07:15:28;100882.97;;;19.65;51.50
74615;BME280;63121;51.458;-0.110;2023-08-31T07:17:54;100895.97;;;19.85;51.18
74615;BME280;63121;51.458;-0.110;2023-08-31T07:20:19;100888.59;;;19.94;51.25
74615;BME280;63121;51.458;-0.110;2023-08-31T07:22:45;100890.66;;;20.06;50.55
74615;BME280;63121;51.458;-0.110;2023-08-31T07:25:10;100894.47;;;20.18;50.50
74615;BME280;63121;51.458;-0.110;2023-08-31T07:27:37;100891.59;;;20.05;50.07
74615;BME280;63121;51.458;-0.110;2023-08-31T07:30:03;100892.63;;;20.37;49.41
74615;BME280;63121;51.458;-0.110;2023-08-31T07:32:29;100893.69;;;20.16;49.71
74615;BME280;63121;51.458;-0.110;2023-08-31T07:34:54;100891.88;;;20.35;49.18
74615;BME280;63121;51.458;-0.110;2023-08-31T07:37:20;100893.47;;;20.55;49.16
74615;BME280;63121;51.458;-0.110;2023-08-31T07:39:45;100886.88;;;20.65;48.24
74615;BME280;63121;51.458;-0.110;2023-08-31T07:42:11;100886.56;;;20.71;48.16
74615;BME280;63121;51.458;-0.110;2023-08-31T07:44:36;100891.28;;;20.65;48.41
74615;BME280;63121;51.458;-0.110;2023-08-31T07:47:02;100887.72;;;20.66;48.57
74615;BME280;63121;51.458;-0.110;2023-08-31T07:49:27;100897.63;;;20.96;48.12
74615;BME280;63121;51.458;-0.110;2023-08-31T07:51:53;100882.97;;;21.07;47.72
74615;BME280;63121;51.458;-0.110;2023-08-31T07:54:21;100883.03;;;20.90;48.01
74615;BME280;63121;51.458;-0.110;2023-08-31T07:56:47;100876.81;;;21.08;47.73
74615;BME280;63121;51.458;-0.110;2023-08-31T07:59:12;100877.66;;;21.09;47.14
74615;BME280;63121;51.458;-0.110;2023-08-31T08:01:38;100883.19;;;21.20;46.94
74615;BME280;63121;51.458;-0.110;2023-08-31T08:04:04;100866.97;;;21.29;46.56
74615;BME280;63121;51.458;-0.110;2023-08-31T08:06:29;100874.22;;;20.91;47.07
74615;BME280;63121;51.458;-0.110;2023-08-31T08:08:54;100876.16;;;20.87;47.83
74615;BME280;63121;51.458;-0.110;2023-08-31T08:11:22;100876.06;;;20.89;47.56
74615;BME280;63121;51.458;-0.110;2023-08-31T08:13:48;100875.28;;;20.87;47.34
74615;BME280;63121;51.458;-0.110;2023-08-31T08:16:13;100878.31;;;20.79;47.95
74615;BME280;63121;51.458;-0.110;2023-08-31T08:18:40;100876.25;;;21.02;46.99
74615;BME280;63121;51.458;-0.110;2023-08-31T08:21:05;100871.84;;;21.69;45.95
74615;BME280;63121;51.458;-0.110;2023-08-31T08:23:31;100873.69;;;21.99;44.82
74615;BME280;63121;51.458;-0.110;2023-08-31T08:25:56;100882.28;;;21.86;45.32
74615;BME280;63121;51.458;-0.110;2023-08-31T08:28:24;100873.78;;;21.81;44.87
74615;BME280;63121;51.458;-0.110;2023-08-31T08:30:50;100877.53;;;21.93;44.82
74615;BME280;63121;51.458;-0.110;2023-08-31T08:33:15;100881.97;;;22.07;44.59
74615;BME280;63121;51.458;-0.110;2023-08-31T08:35:40;100877.75;;;22.04;44.18
74615;BME280;63121;51.458;-0.110;2023-08-31T08:38:06;100884.19;;;22.15;44.13
74615;BME280;63121;51.458;-0.110;2023-08-31T08:40:31;100879.31;;;22.39;44.26
74615;BME280;63121;51.458;-0.110;2023-08-31T08:43:00;100885.44;;;22.39;43.88
74615;BME280;63121;51.458;-0.110;2023-08-31T08:45:29;100882.88;;;22.22;44.08
74615;BME280;63121;51.458;-0.110;2023-08-31T08:47:57;100890.31;;;21.83;44.73
74615;BME280;63121;51.458;-0.110;2023-08-31T08:50:23;100879.38;;;21.91;44.61
74615;BME280;63121;51.458;-0.110;2023-08-31T08:52:49;100873.97;;;21.78;45.05
74615;BME280;63121;51.458;-0.110;2023-08-31T08:55:15;100882.34;;;21.85;44.56
74615;BME280;63121;51.458;-0.110;2023-08-31T08:57:41;100884.03;;;21.86;44.92
74615;BME280;63121;51.458;-0.110;2023-08-31T09:00:07;100883.78;;;21.75;44.88
74615;BME280;63121;51.458;-0.110;2023-08-31T09:02:32;100883.03;;;21.72;44.82
74615;BME280;63121;51.458;-0.110;2023-08-31T09:04:58;100874.22;;;22.05;44.18
74615;BME280;63121;51.458;-0.110;2023-08-31T09:07:24;100870.97;;;22.00;44.04
74615;BME280;63121;51.458;-0.110;2023-08-31T09:09:53;100875.47;;;21.98;43.92
74615;BME280;63121;51.458;-0.110;2023-08-31T09:12:22;100873.59;;;22.16;44.55
74615;BME280;63121;51.458;-0.110;2023-08-31T09:15:01;100873.31;;;22.21;45.33
74615;BME280;63121;51.458;-0.110;2023-08-31T09:17:37;100868.50;;;22.13;46.02
74615;BME280;63121;51.458;-0.110;2023-08-31T09:20:04;100875.22;;;21.87;47.11
74615;BME280;63121;51.458;-0.110;2023-08-31T09:22:29;100876.00;;;21.57;48.30
74615;BME280;63121;51.458;-0.110;2023-08-31T09:24:54;100876.25;;;21.84;49.95
74615;BME280;63121;51.458;-0.110;2023-08-31T09:27:20;100874.81;;;21.79;49.42
74615;BME280;63121;51.458;-0.110;2023-08-31T09:29:46;100874.38;;;21.70;50.23
74615;BME280;63121;51.458;-0.110;2023-08-31T09:32:17;100875.16;;;21.72;48.82
74615;BME280;63121;51.458;-0.110;2023-08-31T09:34:42;100872.84;;;21.66;49.15
74615;BME280;63121;51.458;-0.110;2023-08-31T09:37:08;100871.56;;;21.42;48.73
74615;BME280;63121;51.458;-0.110;2023-08-31T09:39:39;100873.84;;;21.48;49.98
74615;BME280;63121;51.458;-0.110;2023-08-31T09:42:04;100870.91;;;21.54;51.54
74615;BME280;63121;51.458;-0.110;2023-08-31T09:44:30;100869.63;;;21.45;50.31
74615;BME280;63121;51.458;-0.110;2023-08-31T09:46:55;100865.75;;;21.35;50.21
74615;BME280;63121;51.458;-0.110;2023-08-31T09:49:21;100870.31;;;21.49;50.06
74615;BME280;63121;51.458;-0.110;2023-08-31T09:51:49;100873.19;;;21.44;50.09
74615;BME280;63121;51.458;-0.110;2023-08-31T09:54:16;100877.03;;;21.55;49.62
74615;BME280;63121;51.458;-0.110;2023-08-31T09:56:43;100881.91;;;21.61;52.23
74615;BME280;63121;51.458;-0.110;2023-08-31T09:59:12;100871.94;;;21.99;52.16
74615;BME280;63121;51.458;-0.110;2023-08-31T10:01:42;100875.31;;;22.01;51.09
74615;BME280;63121;51.458;-0.110;2023-08-31T10:04:09;100874.69;;;22.28;49.99
74615;BME280;63121;51.458;-0.110;2023-08-31T10:06:35;100878.81;;;22.48;50.65
74615;BME280;63121;51.458;-0.110;2023-08-31T10:09:03;100877.63;;;22.22;49.56
74615;BME280;63121;51.458;-0.110;2023-08-31T10:11:30;100877.84;;;22.49;48.35
74615;BME280;63121;51.458;-0.110;2023-08-31T10:13:57;100880.63;;;22.31;48.75
74615;BME280;63121;51.458;-0.110;2023-08-31T10:16:25;100881.03;;;22.40;48.94
74615;BME280;63121;51.458;-0.110;2023-08-31T10:18:50;100875.28;;;22.33;48.97
74615;BME280;63121;51.458;-0.110;2023-08-31T10:21:17;100879.00;;;22.59;49.95
74615;BME280;63121;51.458;-0.110;2023-08-31T10:23:46;100873.38;;;22.65;50.08
74615;BME280;63121;51.458;-0.110;2023-08-31T10:26:12;100883.00;;;22.66;50.03
74615;BME280;63121;51.458;-0.110;2023-08-31T10:28:42;100882.22;;;23.09;49.54
74615;BME280;63121;51.458;-0.110;2023-08-31T10:31:18;100873.47;;;23.37;49.92
74615;BME280;63121;51.458;-0.110;2023-08-31T10:36:20;100870.44;;;23.58;49.15
74615;BME280;63121;51.458;-0.110;2023-08-31T10:39:00;100869.75;;;23.68;48.66
74615;BME280;63121;51.458;-0.110;2023-08-31T10:41:33;100860.44;;;24.04;47.72
74615;BME280;63121;51.458;-0.110;2023-08-31T10:43:59;100862.72;;;24.36;47.87
74615;BME280;63121;51.458;-0.110;2023-08-31T10:51:21;100849.94;;;24.83;44.89
74615;BME280;63121;51.458;-0.110;2023-08-31T10:53:47;100849.50;;;25.02;46.01
74615;BME280;63121;51.458;-0.110;2023-08-31T10:56:15;100846.28;;;24.45;44.92
74615;BME280;63121;51.458;-0.110;2023-08-31T10:58:41;100848.34;;;24.93;44.63
74615;BME280;63121;51.458;-0.110;2023-08-31T11:01:06;100857.53;;;25.00;44.71
74615;BME280;63121;51.458;-0.110;2023-08-31T11:03:32;100850.81;;;25.46;44.27
74615;BME280;63121;51.458;-0.110;2023-08-31T11:05:57;100851.66;;;25.83;42.41
74615;BME280;63121;51.458;-0.110;2023-08-31T11:08:23;100853.44;;;25.59;42.65
74615;BME280;63121;51.458;-0.110;2023-08-31T11:10:49;100849.41;;;25.66;40.82
74615;BME280;63121;51.458;-0.110;2023-08-31T11:13:21;100847.13;;;25.48;41.44
74615;BME280;63121;51.458;-0.110;2023-08-31T11:15:48;100848.38;;;25.80;41.33
74615;BME280;63121;51.458;-0.110;2023-08-31T11:18:14;100853.50;;;25.70;42.50
74615;BME280;63121;51.458;-0.110;2023-08-31T11:20:43;100841.81;;;25.48;40.83
74615;BME280;63121;51.458;-0.110;2023-08-31T11:23:08;100838.59;;;25.45;41.48
74615;BME280;63121;51.458;-0.110;2023-08-31T11:25:34;100847.88;;;25.74;40.57
74615;BME280;63121;51.458;-0.110;2023-08-31T11:28:01;100840.88;;;25.49;41.22
74615;BME280;63121;51.458;-0.110;2023-08-31T11:30:28;100835.94;;;25.45;41.58
74615;BME280;63121;51.458;-0.110;2023-08-31T11:32:56;100841.38;;;25.05;42.40
74615;BME280;63121;51.458;-0.110;2023-08-31T11:35:23;100836.59;;;25.23;41.21
74615;BME280;63121;51.458;-0.110;2023-08-31T11:37:51;100844.84;;;25.68;41.28
74615;BME280;63121;51.458;-0.110;2023-08-31T11:40:17;100833.84;;;25.98;40.49
74615;BME280;63121;51.458;-0.110;2023-08-31T11:42:42;100831.22;;;26.09;39.17
74615;BME280;63121;51.458;-0.110;2023-08-31T11:45:10;100832.59;;;26.15;38.71
74615;BME280;63121;51.458;-0.110;2023-08-31T11:47:36;100833.22;;;26.30;39.30
74615;BME280;63121;51.458;-0.110;2023-08-31T11:50:02;100837.34;;;26.34;39.08
74615;BME280;63121;51.458;-0.110;2023-08-31T11:52:30;100830.13;;;26.36;38.29
74615;BME280;63121;51.458;-0.110;2023-08-31T11:54:56;100834.44;;;26.37;38.81
74615;BME280;63121;51.458;-0.110;2023-08-31T11:57:26;100830.88;;;26.14;39.15
74615;BME280;63121;51.458;-0.110;2023-08-31T11:59:51;100824.44;;;25.94;39.33
74615;BME280;63121;51.458;-0.110;2023-08-31T12:02:19;100822.09;;;25.65;40.07
74615;BME280;63121;51.458;-0.110;2023-08-31T12:04:45;100817.03;;;25.12;41.26
74615;BME280;63121;51.458;-0.110;2023-08-31T12:07:11;100818.75;;;24.75;41.96
74615;BME280;63121;51.458;-0.110;2023-08-31T12:09:37;100823.63;;;24.68;42.09
74615;BME280;63121;51.458;-0.110;2023-08-31T12:12:02;100823.50;;;24.44;42.67
74615;BME280;63121;51.458;-0.110;2023-08-31T12:14:30;100820.78;;;24.84;42.19
74615;BME280;63121;51.458;-0.110;2023-08-31T12:17:04;100826.88;;;24.98;41.83
74615;BME280;63121;51.458;-0.110;2023-08-31T12:19:32;100826.41;;;24.80;42.44
74615;BME280;63121;51.458;-0.110;2023-08-31T12:21:58;100816.63;;;25.06;42.03
74615;BME280;63121;51.458;-0.110;2023-08-31T12:24:24;100819.09;;;25.22;41.47
74615;BME280;63121;51.458;-0.110;2023-08-31T12:26:50;100821.13;;;25.42;41.21
74615;BME280;63121;51.458;-0.110;2023-08-31T12:29:16;100810.38;;;25.20;41.43
74615;BME280;63121;51.458;-0.110;2023-08-31T12:31:41;100807.84;;;24.41;42.25
74615;BME280;63121;51.458;-0.110;2023-08-31T12:34:08;100812.00;;;24.97;41.66
74615;BME280;63121;51.458;-0.110;2023-08-31T12:36:34;100798.28;;;24.66;41.88
74615;BME280;63121;51.458;-0.110;2023-08-31T12:39:02;100802.16;;;25.11;41.08
74615;BME280;63121;51.458;-0.110;2023-08-31T12:41:30;100803.56;;;24.66;41.15
74615;BME280;63121;51.458;-0.110;2023-08-31T12:43:56;100804.28;;;24.93;40.89
74615;BME280;63121;51.458;-0.110;2023-08-31T12:46:22;100803.97;;;24.98;40.49
74615;BME280;63121;51.458;-0.110;2023-08-31T12:48:48;100802.78;;;25.15;39.77
74615;BME280;63121;51.458;-0.110;2023-08-31T12:51:14;100808.22;;;25.01;40.31
74615;BME280;63121;51.458;-0.110;2023-08-31T12:53:40;100814.22;;;25.03;41.37